sensor_id;sensor_type;location;lat;lon;timestamp;P1;durP1;ratioP1;P2;durP2;ratioP2
54897;SDS011;40800;52.704;6.398;2023-06-10T00:02:21;8.40;;;5.40;;
54897;SDS011;40800;52.704;6.398;2023-06-10T00:04:46;7.65;;;5.03;;
54897;SDS011;40800;52.704;6.398;2023-06-10T00:07:12;8.02;;;5.43;;
54897;SDS011;40800;52.704;6.398;2023-06-10T00:09:38;9.43;;;5.13;;
54897;SDS011;40800;52.704;6.398;2023-06-10T00:12:07;11.10;;;5.20;;
54897;SDS011;40800;52.704;6.398;2023-06-10T00:14:36;9.65;;;5.45;;
54897;SDS011;40800;52.704;6.398;2023-06-10T00:17:03;11.05;;;5.70;;
54897;SDS011;40800;52.704;6.398;2023-06-10T00:19:29;6.50;;;4.63;;
54897;SDS011;40800;52.704;6.398;2023-06-10T00:21:58;8.30;;;5.15;;
54897;SDS011;40800;52.704;6.398;2023-06-10T00:24:24;9.70;;;4.97;;
54897;SDS011;40800;52.704;6.398;2023-06-10T00:26:49;9.38;;;5.40;;
54897;SDS011;40800;52.704;6.398;2023-06-10T00:29:15;9.25;;;5.18;;
54897;SDS011;40800;52.704;6.398;2023-06-10T00:31:41;6.93;;;5.32;;
54897;SDS011;40800;52.704;6.398;2023-06-10T00:34:07;13.90;;;5.75;;
54897;SDS011;40800;52.704;6.398;2023-06-10T00:36:33;7.38;;;5.20;;
54897;SDS011;40800;52.704;6.398;2023-06-10T00:38:58;8.60;;;5.93;;
54897;SDS011;40800;52.704;6.398;2023-06-10T00:41:24;10.00;;;5.40;;
54897;SDS011;40800;52.704;6.398;2023-06-10T00:43:51;8.35;;;5.20;;
54897;SDS011;40800;52.704;6.398;2023-06-10T00:46:17;9.90;;;5.50;;
54897;SDS011;40800;52.704;6.398;2023-06-10T00:48:43;8.82;;;5.30;;
54897;SDS011;40800;52.704;6.398;2023-06-10T00:51:10;10.93;;;5.43;;
54897;SDS011;40800;52.704;6.398;2023-06-10T00:53:39;10.05;;;6.03;;
54897;SDS011;40800;52.704;6.398;2023-06-10T00:56:06;9.52;;;5.68;;
54897;SDS011;40800;52.704;6.398;2023-06-10T00:58:32;8.97;;;6.10;;
54897;SDS011;40800;52.704;6.398;2023-06-10T01:00:58;9.40;;;5.97;;
54897;SDS011;40800;52.704;6.398;2023-06-10T01:03:24;8.00;;;6.03;;
54897;SDS011;40800;52.704;6.398;2023-06-10T01:06:36;8.65;;;5.95;;
54897;SDS011;40800;52.704;6.398;2023-06-10T01:11:25;9.63;;;6.13;;
54897;SDS011;40800;52.704;6.398;2023-06-10T01:13:55;9.93;;;5.60;;
54897;SDS011;40800;52.704;6.398;2023-06-10T01:16:23;9.45;;;6.03;;
54897;SDS011;40800;52.704;6.398;2023-06-10T01:18:49;10.57;;;5.93;;
54897;SDS011;40800;52.704;6.398;2023-06-10T01:21:19;8.97;;;6.00;;
54897;SDS011;40800;52.704;6.398;2023-06-10T01:23:46;10.02;;;5.57;;
54897;SDS011;40800;52.704;6.398;2023-06-10T01:26:12;9.40;;;6.30;;
54897;SDS011;40800;52.704;6.398;2023-06-10T01:28:44;10.10;;;6.05;;
54897;SDS011;40800;52.704;6.398;2023-06-10T01:33:59;8.27;;;5.90;;
54897;SDS011;40800;52.704;6.398;2023-06-10T01:36:25;9.48;;;6.00;;
54897;SDS011;40800;52.704;6.398;2023-06-10T01:38:52;8.57;;;5.90;;
54897;SDS011;40800;52.704;6.398;2023-06-10T01:41:18;12.80;;;6.15;;
54897;SDS011;40800;52.704;6.398;2023-06-10T01:43:46;11.32;;;6.50;;
54897;SDS011;40800;52.704;6.398;2023-06-10T01:46:12;9.10;;;6.03;;
54897;SDS011;40800;52.704;6.398;2023-06-10T01:48:38;7.90;;;6.07;;
54897;SDS011;40800;52.704;6.398;2023-06-10T01:51:04;12.27;;;6.53;;
54897;SDS011;40800;52.704;6.398;2023-06-10T01:53:30;11.77;;;6.80;;
54897;SDS011;40800;52.704;6.398;2023-06-10T01:55:56;10.43;;;6.35;;
54897;SDS011;40800;52.704;6.398;2023-06-10T01:58:21;9.63;;;6.35;;
54897;SDS011;40800;52.704;6.398;2023-06-10T02:00:47;9.02;;;6.35;;
54897;SDS011;40800;52.704;6.398;2023-06-10T02:03:12;8.55;;;6.43;;
54897;SDS011;40800;52.704;6.398;2023-06-10T02:05:38;10.15;;;6.20;;
54897;SDS011;40800;52.704;6.398;2023-06-10T02:08:04;12.33;;;6.77;;
54897;SDS011;40800;52.704;6.398;2023-06-10T02:10:30;9.90;;;6.50;;
54897;SDS011;40800;52.704;6.398;2023-06-10T02:12:56;9.63;;;6.97;;
54897;SDS011;40800;52.704;6.398;2023-06-10T02:15:21;8.20;;;6.15;;
54897;SDS011;40800;52.704;6.398;2023-06-10T02:17:47;10.57;;;6.40;;
54897;SDS011;40800;52.704;6.398;2023-06-10T02:20:15;12.20;;;7.35;;
54897;SDS011;40800;52.704;6.398;2023-06-10T02:22:41;11.68;;;6.60;;
54897;SDS011;40800;52.704;6.398;2023-06-10T02:25:07;11.40;;;7.40;;
54897;SDS011;40800;52.704;6.398;2023-06-10T02:27:33;10.05;;;6.25;;
54897;SDS011;40800;52.704;6.398;2023-06-10T02:29:58;10.30;;;7.20;;
54897;SDS011;40800;52.704;6.398;2023-06-10T02:32:24;9.77;;;7.22;;
54897;SDS011;40800;52.704;6.398;2023-06-10T02:34:50;10.57;;;7.13;;
54897;SDS011;40800;52.704;6.398;2023-06-10T02:37:16;24.45;;;8.15;;
54897;SDS011;40800;52.704;6.398;2023-06-10T02:39:41;19.15;;;7.63;;
54897;SDS011;40800;52.704;6.398;2023-06-10T02:42:07;10.80;;;7.07;;
54897;SDS011;40800;52.704;6.398;2023-06-10T02:44:33;11.35;;;7.30;;
54897;SDS011;40800;52.704;6.398;2023-06-10T02:46:59;12.32;;;7.60;;
54897;SDS011;40800;52.704;6.398;2023-06-10T02:49:25;10.32;;;7.57;;
54897;SDS011;40800;52.704;6.398;2023-06-10T02:51:52;10.43;;;7.53;;
54897;SDS011;40800;52.704;6.398;2023-06-10T02:54:21;11.20;;;7.20;;
54897;SDS011;40800;52.704;6.398;2023-06-10T02:56:50;12.20;;;8.20;;
54897;SDS011;40800;52.704;6.398;2023-06-10T03:01:42;11.48;;;7.45;;
54897;SDS011;40800;52.704;6.398;2023-06-10T03:04:08;11.15;;;7.05;;
54897;SDS011;40800;52.704;6.398;2023-06-10T03:06:34;10.98;;;7.60;;
54897;SDS011;40800;52.704;6.398;2023-06-10T03:09:00;39.50;;;9.90;;
54897;SDS011;40800;52.704;6.398;2023-06-10T03:11:29;34.53;;;8.93;;
54897;SDS011;40800;52.704;6.398;2023-06-10T03:13:54;17.42;;;8.02;;
54897;SDS011;40800;52.704;6.398;2023-06-10T03:16:21;13.27;;;9.13;;
54897;SDS011;40800;52.704;6.398;2023-06-10T03:18:46;14.30;;;7.75;;
54897;SDS011;40800;52.704;6.398;2023-06-10T03:21:12;11.45;;;8.43;;
54897;SDS011;40800;52.704;6.398;2023-06-10T03:23:38;12.98;;;8.13;;
54897;SDS011;40800;52.704;6.398;2023-06-10T03:26:03;12.40;;;8.77;;
54897;SDS011;40800;52.704;6.398;2023-06-10T03:28:30;13.13;;;9.27;;
54897;SDS011;40800;52.704;6.398;2023-06-10T03:30:56;10.43;;;8.37;;
54897;SDS011;40800;52.704;6.398;2023-06-10T03:33:22;13.98;;;9.10;;
54897;SDS011;40800;52.704;6.398;2023-06-10T03:35:47;10.88;;;8.30;;
54897;SDS011;40800;52.704;6.398;2023-06-10T03:38:13;12.02;;;8.60;;
54897;SDS011;40800;52.704;6.398;2023-06-10T03:40:39;14.20;;;8.68;;
54897;SDS011;40800;52.704;6.398;2023-06-10T03:43:05;10.88;;;8.27;;
54897;SDS011;40800;52.704;6.398;2023-06-10T03:45:30;13.75;;;8.18;;
54897;SDS011;40800;52.704;6.398;2023-06-10T03:47:57;14.10;;;7.85;;
54897;SDS011;40800;52.704;6.398;2023-06-10T03:50:23;12.00;;;8.27;;
54897;SDS011;40800;52.704;6.398;2023-06-10T03:52:49;11.55;;;8.13;;
54897;SDS011;40800;52.704;6.398;2023-06-10T03:55:15;12.25;;;8.38;;
54897;SDS011;40800;52.704;6.398;2023-06-10T03:57:42;11.30;;;8.23;;
54897;SDS011;40800;52.704;6.398;2023-06-10T04:00:08;12.18;;;8.38;;
54897;SDS011;40800;52.704;6.398;2023-06-10T04:02:37;10.93;;;8.25;;
54897;SDS011;40800;52.704;6.398;2023-06-10T04:05:11;12.20;;;8.65;;
54897;SDS011;40800;52.704;6.398;2023-06-10T04:07:37;11.07;;;8.18;;
54897;SDS011;40800;52.704;6.398;2023-06-10T04:10:04;12.80;;;8.70;;
54897;SDS011;40800;52.704;6.398;2023-06-10T04:12:31;15.10;;;8.85;;
54897;SDS011;40800;52.704;6.398;2023-06-10T04:14:56;11.80;;;8.07;;
54897;SDS011;40800;52.704;6.398;2023-06-10T04:17:22;12.40;;;7.82;;
54897;SDS011;40800;52.704;6.398;2023-06-10T04:19:48;12.10;;;8.25;;
54897;SDS011;40800;52.704;6.398;2023-06-10T04:22:13;10.60;;;7.47;;
54897;SDS011;40800;52.704;6.398;2023-06-10T04:24:39;10.60;;;7.82;;
54897;SDS011;40800;52.704;6.398;2023-06-10T04:27:04;10.40;;;7.90;;
54897;SDS011;40800;52.704;6.398;2023-06-10T04:29:30;12.10;;;7.63;;
54897;SDS011;40800;52.704;6.398;2023-06-10T04:31:56;11.27;;;7.97;;
54897;SDS011;40800;52.704;6.398;2023-06-10T04:34:21;10.75;;;6.95;;
54897;SDS011;40800;52.704;6.398;2023-06-10T04:36:47;12.48;;;8.20;;
54897;SDS011;40800;52.704;6.398;2023-06-10T04:39:13;10.00;;;7.15;;
54897;SDS011;40800;52.704;6.398;2023-06-10T04:41:38;12.93;;;7.32;;
54897;SDS011;40800;52.704;6.398;2023-06-10T04:44:04;11.07;;;8.00;;
54897;SDS011;40800;52.704;6.398;2023-06-10T04:46:29;10.68;;;7.63;;
54897;SDS011;40800;52.704;6.398;2023-06-10T04:48:56;9.30;;;7.50;;
54897;SDS011;40800;52.704;6.398;2023-06-10T04:51:22;13.27;;;8.15;;
54897;SDS011;40800;52.704;6.398;2023-06-10T04:53:48;10.52;;;7.10;;
54897;SDS011;40800;52.704;6.398;2023-06-10T04:56:13;11.30;;;7.00;;
54897;SDS011;40800;52.704;6.398;2023-06-10T04:58:40;9.32;;;7.00;;
54897;SDS011;40800;52.704;6.398;2023-06-10T05:01:06;9.95;;;7.65;;
54897;SDS011;40800;52.704;6.398;2023-06-10T05:03:31;10.75;;;6.80;;
54897;SDS011;40800;52.704;6.398;2023-06-10T05:05:57;12.57;;;7.82;;
54897;SDS011;40800;52.704;6.398;2023-06-10T05:08:22;10.00;;;7.32;;
54897;SDS011;40800;52.704;6.398;2023-06-10T05:10:48;11.85;;;7.22;;
54897;SDS011;40800;52.704;6.398;2023-06-10T05:13:14;10.65;;;7.53;;
54897;SDS011;40800;52.704;6.398;2023-06-10T05:15:41;12.15;;;7.95;;
54897;SDS011;40800;52.704;6.398;2023-06-10T05:18:09;11.23;;;7.40;;
54897;SDS011;40800;52.704;6.398;2023-06-10T05:20:37;13.05;;;7.53;;
54897;SDS011;40800;52.704;6.398;2023-06-10T05:23:03;10.73;;;6.95;;
54897;SDS011;40800;52.704;6.398;2023-06-10T05:25:30;10.77;;;7.32;;
54897;SDS011;40800;52.704;6.398;2023-06-10T05:27:56;9.43;;;7.00;;
54897;SDS011;40800;52.704;6.398;2023-06-10T05:30:21;8.38;;;6.50;;
54897;SDS011;40800;52.704;6.398;2023-06-10T05:32:49;12.43;;;7.72;;
54897;SDS011;40800;52.704;6.398;2023-06-10T05:35:16;11.43;;;7.07;;
54897;SDS011;40800;52.704;6.398;2023-06-10T05:37:42;10.07;;;7.28;;
54897;SDS011;40800;52.704;6.398;2023-06-10T05:40:08;9.15;;;6.90;;
54897;SDS011;40800;52.704;6.398;2023-06-10T05:42:34;9.57;;;6.93;;
54897;SDS011;40800;52.704;6.398;2023-06-10T05:45:00;11.60;;;7.93;;
54897;SDS011;40800;52.704;6.398;2023-06-10T05:47:25;10.55;;;6.93;;
54897;SDS011;40800;52.704;6.398;2023-06-10T05:49:51;12.20;;;7.28;;
54897;SDS011;40800;52.704;6.398;2023-06-10T05:52:17;9.88;;;6.80;;
54897;SDS011;40800;52.704;6.398;2023-06-10T05:54:43;11.23;;;6.82;;
54897;SDS011;40800;52.704;6.398;2023-06-10T05:57:08;12.55;;;7.68;;
54897;SDS011;40800;52.704;6.398;2023-06-10T05:59:35;13.15;;;7.03;;
54897;SDS011;40800;52.704;6.398;2023-06-10T06:02:01;10.20;;;7.03;;
54897;SDS011;40800;52.704;6.398;2023-06-10T06:04:26;10.27;;;7.22;;
54897;SDS011;40800;52.704;6.398;2023-06-10T06:06:52;11.82;;;7.45;;
54897;SDS011;40800;52.704;6.398;2023-06-10T06:09:17;9.88;;;7.10;;
54897;SDS011;40800;52.704;6.398;2023-06-10T06:11:43;11.27;;;7.50;;
54897;SDS011;40800;52.704;6.398;2023-06-10T06:14:08;12.93;;;6.90;;
54897;SDS011;40800;52.704;6.398;2023-06-10T06:16:34;11.98;;;6.35;;
54897;SDS011;40800;52.704;6.398;2023-06-10T06:19:00;13.23;;;7.55;;
54897;SDS011;40800;52.704;6.398;2023-06-10T06:21:25;10.13;;;6.63;;
54897;SDS011;40800;52.704;6.398;2023-06-10T06:23:51;8.50;;;6.30;;
54897;SDS011;40800;52.704;6.398;2023-06-10T06:26:16;11.02;;;7.13;;
54897;SDS011;40800;52.704;6.398;2023-06-10T06:28:42;9.15;;;6.25;;
54897;SDS011;40800;52.704;6.398;2023-06-10T06:31:08;12.65;;;6.65;;
54897;SDS011;40800;52.704;6.398;2023-06-10T06:33:33;10.77;;;6.32;;
54897;SDS011;40800;52.704;6.398;2023-06-10T06:35:59;10.75;;;6.55;;
54897;SDS011;40800;52.704;6.398;2023-06-10T06:38:25;10.57;;;6.40;;
54897;SDS011;40800;52.704;6.398;2023-06-10T06:40:51;10.27;;;6.28;;
54897;SDS011;40800;52.704;6.398;2023-06-10T06:43:16;9.70;;;6.25;;
54897;SDS011;40800;52.704;6.398;2023-06-10T06:45:43;10.32;;;6.45;;
54897;SDS011;40800;52.704;6.398;2023-06-10T06:48:10;9.77;;;5.65;;
54897;SDS011;40800;52.704;6.398;2023-06-10T06:50:36;10.15;;;5.60;;
54897;SDS011;40800;52.704;6.398;2023-06-10T06:53:01;8.23;;;5.22;;
54897;SDS011;40800;52.704;6.398;2023-06-10T06:55:27;8.68;;;6.03;;
54897;SDS011;40800;52.704;6.398;2023-06-10T06:57:53;11.32;;;6.28;;
54897;SDS011;40800;52.704;6.398;2023-06-10T07:00:19;9.43;;;5.88;;
54897;SDS011;40800;52.704;6.398;2023-06-10T07:02:44;12.77;;;5.93;;
54897;SDS011;40800;52.704;6.398;2023-06-10T07:05:10;15.05;;;5.70;;
54897;SDS011;40800;52.704;6.398;2023-06-10T07:07:36;9.38;;;5.50;;
54897;SDS011;40800;52.704;6.398;2023-06-10T07:10:01;9.35;;;5.43;;
54897;SDS011;40800;52.704;6.398;2023-06-10T07:12:27;10.63;;;5.60;;
54897;SDS011;40800;52.704;6.398;2023-06-10T07:14:52;9.45;;;5.90;;
54897;SDS011;40800;52.704;6.398;2023-06-10T07:17:18;10.57;;;5.85;;
54897;SDS011;40800;52.704;6.398;2023-06-10T07:19:44;11.15;;;6.13;;
54897;SDS011;40800;52.704;6.398;2023-06-10T07:22:10;13.77;;;6.43;;
54897;SDS011;40800;52.704;6.398;2023-06-10T07:24:36;10.18;;;5.63;;
54897;SDS011;40800;52.704;6.398;2023-06-10T07:27:02;13.63;;;6.15;;
54897;SDS011;40800;52.704;6.398;2023-06-10T07:29:27;10.57;;;5.90;;
54897;SDS011;40800;52.704;6.398;2023-06-10T07:31:53;10.30;;;5.57;;
54897;SDS011;40800;52.704;6.398;2023-06-10T07:34:19;27.40;;;6.18;;
54897;SDS011;40800;52.704;6.398;2023-06-10T07:36:44;17.70;;;5.45;;
54897;SDS011;40800;52.704;6.398;2023-06-10T07:39:10;13.25;;;5.78;;
54897;SDS011;40800;52.704;6.398;2023-06-10T07:41:36;13.50;;;5.47;;
54897;SDS011;40800;52.704;6.398;2023-06-10T07:44:02;9.65;;;5.57;;
54897;SDS011;40800;52.704;6.398;2023-06-10T07:46:27;10.40;;;5.68;;
54897;SDS011;40800;52.704;6.398;2023-06-10T07:48:54;9.23;;;5.35;;
54897;SDS011;40800;52.704;6.398;2023-06-10T07:51:20;7.88;;;5.25;;
54897;SDS011;40800;52.704;6.398;2023-06-10T07:53:46;18.35;;;6.40;;
54897;SDS011;40800;52.704;6.398;2023-06-10T07:56:11;7.73;;;4.87;;
54897;SDS011;40800;52.704;6.398;2023-06-10T07:58:37;11.10;;;5.35;;
54897;SDS011;40800;52.704;6.398;2023-06-10T08:01:03;10.70;;;5.20;;
54897;SDS011;40800;52.704;6.398;2023-06-10T08:03:29;8.73;;;5.30;;
54897;SDS011;40800;52.704;6.398;2023-06-10T08:05:54;9.20;;;5.40;;
54897;SDS011;40800;52.704;6.398;2023-06-10T08:08:20;12.87;;;5.30;;
54897;SDS011;40800;52.704;6.398;2023-06-10T08:10:46;10.80;;;5.70;;
54897;SDS011;40800;52.704;6.398;2023-06-10T08:13:11;12.77;;;5.63;;
54897;SDS011;40800;52.704;6.398;2023-06-10T08:15:37;8.45;;;4.82;;
54897;SDS011;40800;52.704;6.398;2023-06-10T08:18:03;8.73;;;5.20;;
54897;SDS011;40800;52.704;6.398;2023-06-10T08:20:28;9.53;;;4.73;;
54897;SDS011;40800;52.704;6.398;2023-06-10T08:22:54;8.57;;;4.87;;
54897;SDS011;40800;52.704;6.398;2023-06-10T08:25:20;8.73;;;5.00;;
54897;SDS011;40800;52.704;6.398;2023-06-10T08:27:47;8.25;;;4.88;;
54897;SDS011;40800;52.704;6.398;2023-06-10T08:30:13;10.13;;;4.53;;
54897;SDS011;40800;52.704;6.398;2023-06-10T08:32:39;9.77;;;4.75;;
54897;SDS011;40800;52.704;6.398;2023-06-10T08:35:04;7.93;;;4.70;;
54897;SDS011;40800;52.704;6.398;2023-06-10T08:37:30;8.70;;;4.63;;
54897;SDS011;40800;52.704;6.398;2023-06-10T08:39:56;8.00;;;4.47;;
54897;SDS011;40800;52.704;6.398;2023-06-10T08:42:27;8.97;;;4.67;;
54897;SDS011;40800;52.704;6.398;2023-06-10T08:44:58;9.93;;;5.22;;
54897;SDS011;40800;52.704;6.398;2023-06-10T08:47:27;7.97;;;4.63;;
54897;SDS011;40800;52.704;6.398;2023-06-10T08:49:56;17.27;;;5.38;;
54897;SDS011;40800;52.704;6.398;2023-06-10T08:52:28;7.60;;;4.05;;
54897;SDS011;40800;52.704;6.398;2023-06-10T08:55:00;7.50;;;4.65;;
54897;SDS011;40800;52.704;6.398;2023-06-10T08:57:40;8.05;;;4.25;;
54897;SDS011;40800;52.704;6.398;2023-06-10T09:00:07;6.30;;;4.45;;
54897;SDS011;40800;52.704;6.398;2023-06-10T09:02:33;9.02;;;4.30;;
54897;SDS011;40800;52.704;6.398;2023-06-10T09:05:00;5.75;;;4.25;;
54897;SDS011;40800;52.704;6.398;2023-06-10T09:07:27;9.32;;;4.28;;
54897;SDS011;40800;52.704;6.398;2023-06-10T09:09:56;7.57;;;4.40;;
54897;SDS011;40800;52.704;6.398;2023-06-10T09:12:23;7.95;;;4.50;;
54897;SDS011;40800;52.704;6.398;2023-06-10T09:14:49;6.83;;;4.07;;
54897;SDS011;40800;52.704;6.398;2023-06-10T09:17:15;9.93;;;4.67;;
54897;SDS011;40800;52.704;6.398;2023-06-10T09:19:41;6.68;;;4.35;;
54897;SDS011;40800;52.704;6.398;2023-06-10T09:22:09;6.65;;;4.60;;
54897;SDS011;40800;52.704;6.398;2023-06-10T09:24:35;15.63;;;4.97;;
54897;SDS011;40800;52.704;6.398;2023-06-10T09:27:04;9.70;;;5.23;;
54897;SDS011;40800;52.704;6.398;2023-06-10T09:29:31;10.60;;;5.00;;
54897;SDS011;40800;52.704;6.398;2023-06-10T09:32:16;10.05;;;5.00;;
54897;SDS011;40800;52.704;6.398;2023-06-10T09:34:43;8.98;;;5.65;;
54897;SDS011;40800;52.704;6.398;2023-06-10T09:37:09;10.77;;;5.77;;
54897;SDS011;40800;52.704;6.398;2023-06-10T09:39:37;7.05;;;5.00;;
54897;SDS011;40800;52.704;6.398;2023-06-10T09:42:24;7.68;;;5.00;;
54897;SDS011;40800;52.704;6.398;2023-06-10T09:44:52;11.57;;;5.35;;
54897;SDS011;40800;52.704;6.398;2023-06-10T09:47:20;9.00;;;5.53;;
54897;SDS011;40800;52.704;6.398;2023-06-10T09:49:47;8.40;;;5.05;;
54897;SDS011;40800;52.704;6.398;2023-06-10T09:52:13;12.65;;;5.38;;
54897;SDS011;40800;52.704;6.398;2023-06-10T09:54:45;11.88;;;5.13;;
54897;SDS011;40800;52.704;6.398;2023-06-10T09:57:11;11.07;;;5.40;;
54897;SDS011;40800;52.704;6.398;2023-06-10T09:59:37;7.20;;;4.83;;
54897;SDS011;40800;52.704;6.398;2023-06-10T10:02:03;8.55;;;5.57;;
54897;SDS011;40800;52.704;6.398;2023-06-10T10:04:29;6.60;;;4.72;;
54897;SDS011;40800;52.704;6.398;2023-06-10T10:06:55;6.20;;;4.80;;
54897;SDS011;40800;52.704;6.398;2023-06-10T10:09:21;8.60;;;5.13;;
54897;SDS011;40800;52.704;6.398;2023-06-10T10:11:46;7.27;;;4.57;;
54897;SDS011;40800;52.704;6.398;2023-06-10T10:14:13;6.35;;;5.03;;
54897;SDS011;40800;52.704;6.398;2023-06-10T10:16:40;6.93;;;5.15;;
54897;SDS011;40800;52.704;6.398;2023-06-10T10:19:18;6.25;;;4.88;;
54897;SDS011;40800;52.704;6.398;2023-06-10T10:21:54;6.57;;;5.55;;
54897;SDS011;40800;52.704;6.398;2023-06-10T10:24:30;6.00;;;5.18;;
54897;SDS011;40800;52.704;6.398;2023-06-10T10:27:08;10.45;;;5.60;;
54897;SDS011;40800;52.704;6.398;2023-06-10T10:29:39;6.78;;;4.80;;
54897;SDS011;40800;52.704;6.398;2023-06-10T10:32:06;15.70;;;5.53;;
54897;SDS011;40800;52.704;6.398;2023-06-10T10:37:05;21.92;;;5.88;;
54897;SDS011;40800;52.704;6.398;2023-06-10T10:39:30;10.47;;;4.83;;
54897;SDS011;40800;52.704;6.398;2023-06-10T10:41:59;15.43;;;4.65;;
54897;SDS011;40800;52.704;6.398;2023-06-10T10:44:25;14.82;;;5.03;;
54897;SDS011;40800;52.704;6.398;2023-06-10T10:46:52;7.45;;;4.60;;
54897;SDS011;40800;52.704;6.398;2023-06-10T10:49:20;9.40;;;4.63;;
54897;SDS011;40800;52.704;6.398;2023-06-10T10:52:00;6.65;;;4.75;;
54897;SDS011;40800;52.704;6.398;2023-06-10T10:54:30;6.22;;;4.57;;
54897;SDS011;40800;52.704;6.398;2023-06-10T11:02:09;8.73;;;4.72;;
54897;SDS011;40800;52.704;6.398;2023-06-10T11:04:35;7.07;;;4.57;;
54897;SDS011;40800;52.704;6.398;2023-06-10T11:07:07;9.77;;;4.70;;
54897;SDS011;40800;52.704;6.398;2023-06-10T11:09:33;7.50;;;4.55;;
54897;SDS011;40800;52.704;6.398;2023-06-10T11:11:59;6.13;;;4.27;;
54897;SDS011;40800;52.704;6.398;2023-06-10T11:14:28;7.45;;;4.35;;
54897;SDS011;40800;52.704;6.398;2023-06-10T11:16:58;7.22;;;4.60;;
54897;SDS011;40800;52.704;6.398;2023-06-10T11:19:31;7.93;;;4.43;;
54897;SDS011;40800;52.704;6.398;2023-06-10T11:21:59;6.55;;;4.68;;
54897;SDS011;40800;52.704;6.398;2023-06-10T11:24:25;5.32;;;4.00;;
54897;SDS011;40800;52.704;6.398;2023-06-10T11:26:51;7.70;;;4.93;;
54897;SDS011;40800;52.704;6.398;2023-06-10T11:29:17;6.00;;;4.20;;
54897;SDS011;40800;52.704;6.398;2023-06-10T11:31:46;5.77;;;4.20;;
54897;SDS011;40800;52.704;6.398;2023-06-10T11:34:15;14.00;;;5.00;;
54897;SDS011;40800;52.704;6.398;2023-06-10T11:36:48;11.73;;;4.78;;
54897;SDS011;40800;52.704;6.398;2023-06-10T11:39:14;51.67;;;7.03;;
54897;SDS011;40800;52.704;6.398;2023-06-10T11:41:40;47.47;;;6.78;;
54897;SDS011;40800;52.704;6.398;2023-06-10T11:44:10;16.08;;;5.03;;
54897;SDS011;40800;52.704;6.398;2023-06-10T11:46:37;9.85;;;4.53;;
54897;SDS011;40800;52.704;6.398;2023-06-10T11:49:03;8.32;;;4.30;;
54897;SDS011;40800;52.704;6.398;2023-06-10T11:51:40;6.20;;;4.05;;
54897;SDS011;40800;52.704;6.398;2023-06-10T11:54:10;5.07;;;4.28;;
54897;SDS011;40800;52.704;6.398;2023-06-10T11:56:35;6.47;;;4.32;;
54897;SDS011;40800;52.704;6.398;2023-06-10T11:59:02;5.30;;;4.13;;
54897;SDS011;40800;52.704;6.398;2023-06-10T12:01:35;5.68;;;3.97;;
54897;SDS011;40800;52.704;6.398;2023-06-10T12:04:03;7.13;;;4.50;;
54897;SDS011;40800;52.704;6.398;2023-06-10T12:09:05;7.22;;;4.30;;
54897;SDS011;40800;52.704;6.398;2023-06-10T12:11:31;8.63;;;4.28;;
54897;SDS011;40800;52.704;6.398;2023-06-10T12:16:23;10.48;;;4.30;;
54897;SDS011;40800;52.704;6.398;2023-06-10T12:18:49;4.83;;;3.87;;
54897;SDS011;40800;52.704;6.398;2023-06-10T12:21:15;7.00;;;4.10;;
54897;SDS011;40800;52.704;6.398;2023-06-10T12:23:59;12.90;;;4.40;;
54897;SDS011;40800;52.704;6.398;2023-06-10T12:26:36;9.00;;;4.15;;
54897;SDS011;40800;52.704;6.398;2023-06-10T12:29:22;6.03;;;4.00;;
54897;SDS011;40800;52.704;6.398;2023-06-10T12:31:53;6.07;;;3.95;;
54897;SDS011;40800;52.704;6.398;2023-06-10T12:36:54;4.70;;;3.80;;
54897;SDS011;40800;52.704;6.398;2023-06-10T12:39:19;4.73;;;4.00;;
54897;SDS011;40800;52.704;6.398;2023-06-10T12:44:13;4.65;;;3.90;;
54897;SDS011;40800;52.704;6.398;2023-06-10T12:46:39;6.47;;;3.53;;
54897;SDS011;40800;52.704;6.398;2023-06-10T12:49:04;5.70;;;4.03;;
54897;SDS011;40800;52.704;6.398;2023-06-10T12:51:30;4.90;;;3.83;;
54897;SDS011;40800;52.704;6.398;2023-06-10T12:56:22;4.93;;;3.95;;
54897;SDS011;40800;52.704;6.398;2023-06-10T12:58:48;4.28;;;3.85;;
54897;SDS011;40800;52.704;6.398;2023-06-10T13:01:14;5.40;;;3.83;;
54897;SDS011;40800;52.704;6.398;2023-06-10T13:03:40;5.78;;;3.70;;
54897;SDS011;40800;52.704;6.398;2023-06-10T13:06:05;5.53;;;3.97;;
54897;SDS011;40800;52.704;6.398;2023-06-10T13:08:32;4.65;;;3.63;;
54897;SDS011;40800;52.704;6.398;2023-06-10T13:10:57;4.53;;;3.70;;
54897;SDS011;40800;52.704;6.398;2023-06-10T13:13:23;4.55;;;3.70;;
54897;SDS011;40800;52.704;6.398;2023-06-10T13:15:49;4.60;;;3.83;;
54897;SDS011;40800;52.704;6.398;2023-06-10T13:18:15;5.00;;;3.50;;
54897;SDS011;40800;52.704;6.398;2023-06-10T13:20:43;5.22;;;4.00;;
54897;SDS011;40800;52.704;6.398;2023-06-10T13:23:09;5.22;;;3.75;;
54897;SDS011;40800;52.704;6.398;2023-06-10T13:25:35;5.50;;;3.97;;
54897;SDS011;40800;52.704;6.398;2023-06-10T13:28:00;4.73;;;4.00;;
54897;SDS011;40800;52.704;6.398;2023-06-10T13:30:26;5.00;;;3.50;;
54897;SDS011;40800;52.704;6.398;2023-06-10T13:32:52;7.75;;;4.03;;
54897;SDS011;40800;52.704;6.398;2023-06-10T13:35:18;5.07;;;4.00;;
54897;SDS011;40800;52.704;6.398;2023-06-10T13:37:43;5.17;;;3.80;;
54897;SDS011;40800;52.704;6.398;2023-06-10T13:40:09;5.87;;;4.00;;
54897;SDS011;40800;52.704;6.398;2023-06-10T13:42:35;5.93;;;3.67;;
54897;SDS011;40800;52.704;6.398;2023-06-10T13:45:01;5.65;;;3.78;;
54897;SDS011;40800;52.704;6.398;2023-06-10T13:47:28;4.47;;;3.40;;
54897;SDS011;40800;52.704;6.398;2023-06-10T13:49:54;5.15;;;3.90;;
54897;SDS011;40800;52.704;6.398;2023-06-10T13:52:19;4.43;;;3.83;;
54897;SDS011;40800;52.704;6.398;2023-06-10T13:54:45;6.07;;;3.60;;
54897;SDS011;40800;52.704;6.398;2023-06-10T13:57:10;4.40;;;3.80;;
54897;SDS011;40800;52.704;6.398;2023-06-10T13:59:36;5.17;;;3.60;;
54897;SDS011;40800;52.704;6.398;2023-06-10T14:02:02;4.93;;;3.72;;
54897;SDS011;40800;52.704;6.398;2023-06-10T14:04:28;17.85;;;4.63;;
54897;SDS011;40800;52.704;6.398;2023-06-10T14:06:54;6.83;;;3.97;;
54897;SDS011;40800;52.704;6.398;2023-06-10T14:09:20;6.72;;;3.60;;
54897;SDS011;40800;52.704;6.398;2023-06-10T14:11:45;5.75;;;3.50;;
54897;SDS011;40800;52.704;6.398;2023-06-10T14:14:12;4.95;;;3.75;;
54897;SDS011;40800;52.704;6.398;2023-06-10T14:16:39;6.53;;;3.70;;
54897;SDS011;40800;52.704;6.398;2023-06-10T14:19:04;5.30;;;3.77;;
54897;SDS011;40800;52.704;6.398;2023-06-10T14:21:30;6.17;;;3.67;;
54897;SDS011;40800;52.704;6.398;2023-06-10T14:23:55;5.90;;;4.13;;
54897;SDS011;40800;52.704;6.398;2023-06-10T14:26:21;7.23;;;4.10;;
54897;SDS011;40800;52.704;6.398;2023-06-10T14:28:47;5.73;;;3.80;;
54897;SDS011;40800;52.704;6.398;2023-06-10T14:31:14;5.28;;;3.90;;
54897;SDS011;40800;52.704;6.398;2023-06-10T14:33:40;4.22;;;3.75;;
54897;SDS011;40800;52.704;6.398;2023-06-10T14:36:07;4.22;;;3.67;;
54897;SDS011;40800;52.704;6.398;2023-06-10T14:38:32;5.50;;;3.80;;
54897;SDS011;40800;52.704;6.398;2023-06-10T14:40:58;4.40;;;3.90;;
54897;SDS011;40800;52.704;6.398;2023-06-10T14:43:24;5.47;;;3.83;;
54897;SDS011;40800;52.704;6.398;2023-06-10T14:45:49;5.67;;;3.70;;
54897;SDS011;40800;52.704;6.398;2023-06-10T14:48:16;15.75;;;5.15;;
54897;SDS011;40800;52.704;6.398;2023-06-10T14:50:41;9.23;;;4.37;;
54897;SDS011;40800;52.704;6.398;2023-06-10T14:53:10;6.65;;;4.38;;
54897;SDS011;40800;52.704;6.398;2023-06-10T14:55:35;5.38;;;4.40;;
54897;SDS011;40800;52.704;6.398;2023-06-10T14:58:01;7.07;;;4.50;;
54897;SDS011;40800;52.704;6.398;2023-06-10T15:00:26;6.87;;;4.60;;
54897;SDS011;40800;52.704;6.398;2023-06-10T15:02:52;5.00;;;4.50;;
54897;SDS011;40800;52.704;6.398;2023-06-10T15:05:20;5.18;;;4.50;;
54897;SDS011;40800;52.704;6.398;2023-06-10T15:07:46;4.78;;;4.25;;